Terminal Aerodrome Forecast
Issued by NWS

Current Version | Previous Version | Text Only | Print | Product List | Glossary Off
Versions: 1 2 3 4 5 6 7 8 9 10 11 12 13 14 15 16 17 18 19 20 21 22 23 24

000
FTUS41 KRLX 172300
TAFCKB
TAF
KCKB 172334Z 1800/1824 26010G21KT P6SM -SHSN OVC016
     FM180500 26013G24KT P6SM OVC015
     FM181000 26013G25KT P6SM OVC025
     FM181100 26013G25KT P6SM OVC035=

USA.gov is the U.S. government's official web portal to all federal, state and local government web resources and services.